Albuquerque, New Mexico
Current Conditions -  °F | °C
As of 5:52 PM on Thursday 30 Oct 2014 (Local Time) from KABQ Reporting Station
Few Clouds Few Clouds  
Wind Chill: 70°   Ceiling: Unl
Heat Index: 70°   Visibility: 10mi
Dew Point: 18°   Wind: 3mph
Humidity: 14%   Direction: 210°SSW
Pressure: 30.26"   Gusts: NA
Location:  35.08°N, 106.64°W
Report Text: KABQ 302352Z 21003KT 10SM FEW250 21/M08 A3026 RMK AO2 SLP195 T02111078 10222 20167 56004
Loading
Personal Weather Stations






























Interactive Weather Map
Tropical Storm Tracking
New forecast layout! Learn more

10-Day Weather Forecast

Advertisements
Track Severe Weather on mobile